createdAt,value
2022-07-27T00:00:47.930Z,43.82
2022-07-27T00:03:14.815Z,44.27
2022-07-27T00:05:41.577Z,44.40
2022-07-27T00:08:08.555Z,44.62
2022-07-27T00:10:36.867Z,44.64
2022-07-27T00:13:05.122Z,44.51
2022-07-27T00:15:33.070Z,44.22
2022-07-27T00:18:01.068Z,44.24
2022-07-27T00:20:32.649Z,43.72
2022-07-27T00:22:59.660Z,43.80
2022-07-27T00:25:29.950Z,44.36
2022-07-27T00:27:59.149Z,44.70
2022-07-27T00:30:26.901Z,45.08
2022-07-27T00:32:53.748Z,45.28
2022-07-27T00:35:20.745Z,45.06
2022-07-27T00:37:47.441Z,45.11
2022-07-27T00:40:16.096Z,45.58
2022-07-27T00:42:42.958Z,45.64
2022-07-27T00:45:10.109Z,45.60
2022-07-27T00:47:36.838Z,45.97
2022-07-27T00:50:04.069Z,45.44
2022-07-27T00:52:31.274Z,45.51
2022-07-27T00:54:59.185Z,45.39
2022-07-27T00:57:27.896Z,45.21
2022-07-27T00:59:54.993Z,46.07
2022-07-27T01:02:23.050Z,46.31
2022-07-27T01:04:50.273Z,45.98
2022-07-27T01:07:22.099Z,46.47
2022-07-27T01:09:59.896Z,46.76
2022-07-27T01:12:31.610Z,46.41
2022-07-27T01:14:59.890Z,46.27
2022-07-27T01:17:30.717Z,46.39
2022-07-27T01:19:58.427Z,46.37
2022-07-27T01:22:25.163Z,46.65
2022-07-27T01:24:51.903Z,46.47
2022-07-27T01:27:18.616Z,46.46
2022-07-27T01:29:45.346Z,46.30
2022-07-27T01:32:12.177Z,46.45
2022-07-27T01:34:39.117Z,45.83
2022-07-27T01:37:05.960Z,45.55
2022-07-27T01:39:32.867Z,45.74
2022-07-27T01:42:00.329Z,46.25
2022-07-27T01:44:27.019Z,46.81
2022-07-27T01:46:53.808Z,47.16
2022-07-27T01:49:20.686Z,47.10
2022-07-27T01:51:47.499Z,46.83
2022-07-27T01:54:14.255Z,46.42
2022-07-27T01:56:41.500Z,46.82
2022-07-27T01:59:08.342Z,46.68
2022-07-27T02:01:43.403Z,47.19
2022-07-27T02:04:10.245Z,46.91
2022-07-27T02:06:36.963Z,47.01
2022-07-27T02:09:03.794Z,46.72
2022-07-27T02:11:49.100Z,46.43
2022-07-27T02:14:16.428Z,46.40
2022-07-27T02:16:43.348Z,46.26
2022-07-27T02:19:11.162Z,46.80
2022-07-27T02:21:38.836Z,46.71
2022-07-27T02:24:06.202Z,46.63
2022-07-27T02:26:33.008Z,47.09
2022-07-27T02:28:59.747Z,47.65
2022-07-27T02:31:26.611Z,47.48
2022-07-27T02:33:59.448Z,47.55
2022-07-27T02:36:29.049Z,47.85
2022-07-27T02:38:57.215Z,47.79
2022-07-27T02:41:24.775Z,47.42
2022-07-27T02:43:51.941Z,47.72
2022-07-27T02:46:18.767Z,47.74
2022-07-27T02:48:45.920Z,48.39
2022-07-27T02:51:14.843Z,48.53
2022-07-27T02:53:41.666Z,47.84
2022-07-27T02:56:08.474Z,48.33
2022-07-27T02:58:35.586Z,48.17
2022-07-27T03:01:02.398Z,47.82
2022-07-27T03:03:33.850Z,47.68
2022-07-27T03:06:08.824Z,47.67
2022-07-27T03:08:36.141Z,47.55
2022-07-27T03:11:03.035Z,48.42
2022-07-27T03:13:30.323Z,48.14
2022-07-27T03:15:57.547Z,48.22
2022-07-27T03:18:24.414Z,48.14
2022-07-27T03:20:51.260Z,48.08
2022-07-27T03:23:18.374Z,47.92
2022-07-27T03:25:45.351Z,48.50
2022-07-27T03:28:12.096Z,48.02
2022-07-27T03:30:38.862Z,48.33
2022-07-27T03:33:05.595Z,48.70
2022-07-27T03:35:32.886Z,48.43
2022-07-27T03:37:59.617Z,48.92
2022-07-27T03:40:29.223Z,49.06
2022-07-27T03:42:55.860Z,48.98
2022-07-27T03:45:22.601Z,48.72
2022-07-27T03:47:49.262Z,48.92
2022-07-27T03:50:15.972Z,49.10
2022-07-27T03:52:45.572Z,49.13
2022-07-27T03:55:12.850Z,48.34
2022-07-27T03:57:39.716Z,48.05
2022-07-27T04:00:08.542Z,48.20
2022-07-27T04:02:35.359Z,48.45
2022-07-27T04:05:02.100Z,48.44
2022-07-27T04:07:29.837Z,48.67
2022-07-27T04:09:56.717Z,48.04
2022-07-27T04:12:23.849Z,48.47
2022-07-27T04:14:51.335Z,48.09
2022-07-27T04:17:18.117Z,48.34
2022-07-27T04:20:05.776Z,49.03
2022-07-27T04:22:32.514Z,48.59
2022-07-27T04:24:59.267Z,48.47
2022-07-27T04:27:26.198Z,48.54
2022-07-27T04:29:53.341Z,48.85
2022-07-27T04:32:20.073Z,48.48
2022-07-27T04:34:46.940Z,48.90
2022-07-27T04:37:13.794Z,48.42
2022-07-27T04:39:40.635Z,48.87
2022-07-27T04:42:08.254Z,48.99
2022-07-27T04:44:34.960Z,49.41
2022-07-27T04:47:01.759Z,49.61
2022-07-27T04:49:28.455Z,50.12
2022-07-27T04:51:55.228Z,49.80
2022-07-27T04:54:21.923Z,50.30
2022-07-27T04:56:48.647Z,50.29
2022-07-27T04:59:15.627Z,50.06
2022-07-27T05:01:42.534Z,50.42
2022-07-27T05:04:09.420Z,50.60
2022-07-27T05:06:36.205Z,50.05
2022-07-27T05:09:03.419Z,49.91
2022-07-27T05:11:30.124Z,49.23
2022-07-27T05:13:57.055Z,49.83
2022-07-27T05:16:28.355Z,50.02
2022-07-27T05:18:56.044Z,50.00
2022-07-27T05:21:23.063Z,50.42
2022-07-27T05:23:49.813Z,50.57
2022-07-27T05:26:16.481Z,51.04
2022-07-27T05:28:43.637Z,50.77
2022-07-27T05:31:10.283Z,50.46
2022-07-27T05:33:36.967Z,50.62
2022-07-27T05:36:03.816Z,50.37
2022-07-27T05:38:39.250Z,50.48
2022-07-27T05:41:09.482Z,50.62
2022-07-27T05:43:36.815Z,50.46
2022-07-27T05:46:03.718Z,50.61
2022-07-27T05:48:30.661Z,50.39
2022-07-27T05:50:57.397Z,50.97
2022-07-27T05:53:24.065Z,51.40
2022-07-27T05:55:58.939Z,50.66
2022-07-27T05:58:30.167Z,51.09
2022-07-27T06:00:57.671Z,50.85
2022-07-27T06:03:24.679Z,50.28
2022-07-27T06:05:51.593Z,50.16
2022-07-27T06:08:18.405Z,50.21
2022-07-27T06:10:45.097Z,50.91
2022-07-27T06:13:12.051Z,50.39
2022-07-27T06:15:39.775Z,50.87
2022-07-27T06:18:08.984Z,50.52
2022-07-27T06:20:35.745Z,50.35
2022-07-27T06:23:07.822Z,50.14
2022-07-27T06:25:35.499Z,50.65
2022-07-27T06:28:06.328Z,50.34
2022-07-27T06:30:33.488Z,51.04
2022-07-27T06:33:00.968Z,50.78
2022-07-27T06:35:27.828Z,51.00
2022-07-27T06:37:54.804Z,51.34
2022-07-27T06:40:21.868Z,51.77
2022-07-27T06:42:48.907Z,51.86
2022-07-27T06:45:16.447Z,52.45
2022-07-27T06:47:49.223Z,51.93
2022-07-27T06:50:20.807Z,51.69
2022-07-27T06:52:48.538Z,51.23
2022-07-27T06:55:15.358Z,51.00
2022-07-27T06:57:42.909Z,51.42
2022-07-27T07:00:10.565Z,51.32
2022-07-27T07:02:37.523Z,50.80
2022-07-27T07:05:04.684Z,50.23
2022-07-27T07:07:31.695Z,49.49
2022-07-27T07:09:58.414Z,49.32
2022-07-27T07:12:25.676Z,49.38
2022-07-27T07:14:52.512Z,49.28
2022-07-27T07:17:19.746Z,49.34
2022-07-27T07:19:46.646Z,49.50
2022-07-27T07:22:13.482Z,49.26
2022-07-27T07:24:40.278Z,48.58
2022-07-27T07:27:07.044Z,48.61
2022-07-27T07:29:33.739Z,48.40
2022-07-27T07:32:00.473Z,47.35
2022-07-27T07:34:29.178Z,47.04
2022-07-27T07:36:55.933Z,47.33
2022-07-27T07:39:26.632Z,47.50
2022-07-27T07:41:57.641Z,46.92
2022-07-27T07:44:24.437Z,45.53
2022-07-27T07:46:51.364Z,46.25
2022-07-27T07:49:18.636Z,46.28
2022-07-27T07:52:05.061Z,45.24
2022-07-27T07:54:32.035Z,44.71
2022-07-27T07:56:58.837Z,45.18
2022-07-27T07:59:25.519Z,45.40
2022-07-27T08:01:52.308Z,44.51
2022-07-27T08:04:19.307Z,42.98
2022-07-27T08:06:46.124Z,42.85
2022-07-27T08:09:17.662Z,42.96
2022-07-27T08:11:44.879Z,40.86
2022-07-27T08:14:11.624Z,41.38
2022-07-27T08:16:38.861Z,41.77
2022-07-27T08:19:05.824Z,41.66
2022-07-27T08:21:36.239Z,41.22
2022-07-27T08:24:03.156Z,41.18
2022-07-27T08:26:29.896Z,40.91
2022-07-27T08:28:56.590Z,40.56
2022-07-27T08:31:50.979Z,40.29
2022-07-27T08:34:13.433Z,39.57
2022-07-27T08:36:40.403Z,39.76
2022-07-27T08:39:08.963Z,39.71
2022-07-27T08:41:42.076Z,40.26
2022-07-27T08:44:13.674Z,40.41
2022-07-27T08:46:44.447Z,40.44
2022-07-27T08:49:13.048Z,40.29
2022-07-27T08:51:44.015Z,41.13
2022-07-27T08:54:13.979Z,40.70
2022-07-27T08:56:41.037Z,40.88
2022-07-27T08:59:07.940Z,40.11
2022-07-27T09:01:39.069Z,40.42
2022-07-27T09:04:10.684Z,40.53
2022-07-27T09:06:45.909Z,41.97
2022-07-27T09:09:22.037Z,42.08
2022-07-27T09:12:05.457Z,42.15
2022-07-27T09:14:34.732Z,42.02
2022-07-27T09:20:18.464Z,41.63
2022-07-27T09:22:54.451Z,41.16
2022-07-27T09:28:30.229Z,41.79
2022-07-27T09:31:06.516Z,41.61
2022-07-27T09:33:41.629Z,41.28
2022-07-27T09:36:08.625Z,41.55
2022-07-27T09:38:35.344Z,41.88
2022-07-27T09:41:04.947Z,42.04
2022-07-27T09:46:36.467Z,41.83
2022-07-27T09:49:04.884Z,41.98
2022-07-27T09:51:58.973Z,41.81
2022-07-27T09:54:21.055Z,41.13
2022-07-27T09:56:58.647Z,41.11
2022-07-27T09:59:25.369Z,41.28
2022-07-27T10:01:56.216Z,40.98
2022-07-27T10:04:24.379Z,40.42
2022-07-27T10:07:02.676Z,40.52
2022-07-27T10:09:31.999Z,40.57
2022-07-27T10:11:58.776Z,40.23
2022-07-27T10:14:25.716Z,39.90
2022-07-27T10:16:53.578Z,39.64
2022-07-27T10:19:28.119Z,39.57
2022-07-27T10:21:55.134Z,40.30
2022-07-27T10:24:37.229Z,38.88
2022-07-27T10:27:20.788Z,38.43
2022-07-27T10:29:51.943Z,38.61
2022-07-27T10:32:31.199Z,38.30
2022-07-27T10:34:59.025Z,37.95
2022-07-27T10:37:26.945Z,37.25
2022-07-27T10:40:16.322Z,37.07
2022-07-27T10:42:47.828Z,37.67
2022-07-27T10:45:19.321Z,37.23
2022-07-27T10:47:48.977Z,37.83
2022-07-27T10:50:15.618Z,37.86
2022-07-27T10:53:06.628Z,37.99
2022-07-27T10:55:35.112Z,37.89
2022-07-27T10:58:11.025Z,37.19
2022-07-27T11:00:59.142Z,37.57
2022-07-27T11:03:34.529Z,37.09
2022-07-27T11:11:49.874Z,36.73
2022-07-27T11:14:19.320Z,36.77
2022-07-27T11:17:17.207Z,37.12
2022-07-27T11:19:51.326Z,37.27
2022-07-27T11:22:29.999Z,37.30
2022-07-27T11:25:02.654Z,37.39
2022-07-27T11:27:30.631Z,37.21
2022-07-27T11:29:58.082Z,36.69
2022-07-27T11:32:25.101Z,36.43
2022-07-27T11:34:52.012Z,36.22
2022-07-27T11:37:23.046Z,35.98
2022-07-27T11:40:04.018Z,35.92
2022-07-27T11:42:46.540Z,35.37
2022-07-27T11:45:28.459Z,35.67
2022-07-27T11:47:58.784Z,34.53
2022-07-27T11:50:25.496Z,34.21
2022-07-27T11:53:01.552Z,35.19
2022-07-27T11:55:28.700Z,35.15
2022-07-27T11:58:04.262Z,33.91
2022-07-27T12:00:41.722Z,33.90
2022-07-27T12:03:20.045Z,34.54
2022-07-27T12:05:51.257Z,33.58
2022-07-27T12:08:18.966Z,33.27
2022-07-27T12:11:01.090Z,33.67
2022-07-27T12:13:35.308Z,33.45
2022-07-27T12:16:02.470Z,33.43
2022-07-27T12:18:44.642Z,33.19
2022-07-27T12:21:18.802Z,33.01
2022-07-27T12:23:52.989Z,33.63
2022-07-27T12:26:25.282Z,32.16
2022-07-27T12:29:13.149Z,32.12
2022-07-27T12:31:49.076Z,33.43
2022-07-27T12:34:15.857Z,31.84
2022-07-27T12:36:43.164Z,31.78
2022-07-27T12:39:26.900Z,32.47
2022-07-27T12:42:05.855Z,31.21
2022-07-27T12:44:36.441Z,31.61
2022-07-27T12:47:27.759Z,32.11
2022-07-27T12:50:04.549Z,30.62
2022-07-27T12:52:32.462Z,31.71
2022-07-27T12:54:59.323Z,31.82
2022-07-27T12:57:53.475Z,31.11
2022-07-27T13:00:17.388Z,31.69
2022-07-27T13:02:45.610Z,31.82
2022-07-27T13:05:14.286Z,31.24
2022-07-27T13:07:43.910Z,30.81
2022-07-27T13:10:11.838Z,31.23
2022-07-27T13:12:39.292Z,31.02
2022-07-27T13:15:08.602Z,31.81
2022-07-27T13:17:36.129Z,31.66
2022-07-27T13:20:05.159Z,31.21
2022-07-27T13:22:32.777Z,31.14
2022-07-27T13:24:59.571Z,30.85
2022-07-27T13:27:26.362Z,30.17
2022-07-27T13:29:53.053Z,30.73
2022-07-27T13:32:20.034Z,30.69
2022-07-27T13:34:48.796Z,29.13
2022-07-27T13:37:16.327Z,29.89
2022-07-27T13:39:43.180Z,30.56
2022-07-27T13:42:10.136Z,30.17
2022-07-27T13:45:02.238Z,29.66
2022-07-27T13:47:24.012Z,30.07
2022-07-27T13:49:50.708Z,29.30
2022-07-27T13:52:17.435Z,28.54
2022-07-27T13:54:44.207Z,28.96
2022-07-27T13:57:14.091Z,28.34
2022-07-27T13:59:41.462Z,28.91
2022-07-27T14:02:10.458Z,28.92
2022-07-27T14:04:38.653Z,28.79
2022-07-27T14:07:07.840Z,28.46
2022-07-27T14:09:54.987Z,28.49
2022-07-27T14:12:21.870Z,28.12
2022-07-27T14:14:48.708Z,28.37
2022-07-27T14:17:15.464Z,28.61
2022-07-27T14:19:42.116Z,28.54
2022-07-27T14:22:12.001Z,27.49
2022-07-27T14:24:39.510Z,29.41
2022-07-27T14:27:06.914Z,28.90
2022-07-27T14:29:34.006Z,27.39
2022-07-27T14:32:01.459Z,28.31
2022-07-27T14:34:28.515Z,31.58
2022-07-27T14:36:55.394Z,29.63
2022-07-27T14:39:22.208Z,31.23
2022-07-27T14:41:48.886Z,30.29
2022-07-27T14:44:18.799Z,26.43
2022-07-27T14:46:46.588Z,27.17
2022-07-27T14:49:14.945Z,29.13
2022-07-27T14:51:41.747Z,28.07
2022-07-27T14:54:08.712Z,25.94
2022-07-27T14:56:36.462Z,25.88
2022-07-27T14:59:04.487Z,28.50
2022-07-27T15:01:31.787Z,26.63
2022-07-27T15:03:58.763Z,27.77
2022-07-27T15:06:25.618Z,28.88
2022-07-27T15:08:52.362Z,26.91
2022-07-27T15:11:19.444Z,26.74
2022-07-27T15:13:46.209Z,23.38
2022-07-27T15:16:13.257Z,25.15
2022-07-27T15:18:40.116Z,22.59
2022-07-27T15:21:12.982Z,19.58
2022-07-27T15:23:44.364Z,17.21
2022-07-27T15:26:12.893Z,16.81
2022-07-27T15:28:41.514Z,14.99
2022-07-27T15:31:08.570Z,15.26
2022-07-27T15:33:36.008Z,14.93
2022-07-27T15:36:03.237Z,14.60
2022-07-27T15:38:29.950Z,15.32
2022-07-27T15:40:56.567Z,14.92
2022-07-27T15:43:23.302Z,14.66
2022-07-27T15:45:50.995Z,16.03
2022-07-27T15:48:19.702Z,17.46
2022-07-27T15:50:51.475Z,19.66
2022-07-27T15:53:20.750Z,23.51
2022-07-27T15:55:48.503Z,22.54
2022-07-27T15:58:17.970Z,23.68
2022-07-27T16:00:50.920Z,24.73
2022-07-27T16:03:18.407Z,25.90
2022-07-27T16:05:49.346Z,25.46
2022-07-27T16:08:18.186Z,25.67
2022-07-27T16:10:47.169Z,26.15
2022-07-27T16:13:14.165Z,26.01
2022-07-27T16:16:01.104Z,26.42
2022-07-27T16:18:28.320Z,26.74
2022-07-27T16:20:55.415Z,26.91
2022-07-27T16:23:22.962Z,26.66
2022-07-27T16:26:06.874Z,26.10
2022-07-27T16:28:38.708Z,26.89
2022-07-27T16:31:07.907Z,26.95
2022-07-27T16:33:35.191Z,26.98
2022-07-27T16:36:02.324Z,26.98
2022-07-27T16:38:29.787Z,27.50
2022-07-27T16:40:56.514Z,27.31
2022-07-27T16:43:23.307Z,27.42
2022-07-27T16:46:03.173Z,26.84
2022-07-27T16:48:42.849Z,26.85
2022-07-27T16:51:12.585Z,26.89
2022-07-27T16:53:42.459Z,27.28
2022-07-27T16:56:10.764Z,28.04
2022-07-27T16:58:40.002Z,27.31
2022-07-27T17:01:07.769Z,27.69
2022-07-27T17:03:34.538Z,27.75
2022-07-27T17:06:06.059Z,27.37
2022-07-27T17:08:36.183Z,27.47
2022-07-27T17:11:06.214Z,27.25
2022-07-27T17:13:34.659Z,27.73
2022-07-27T17:16:04.099Z,28.04
2022-07-27T17:18:37.112Z,28.20
2022-07-27T17:21:09.235Z,27.78
2022-07-27T17:23:38.314Z,27.65
2022-07-27T17:26:07.263Z,27.62
2022-07-27T17:28:38.794Z,27.69
2022-07-27T17:31:08.126Z,27.97
2022-07-27T17:33:35.484Z,29.11
2022-07-27T17:36:04.730Z,28.03
2022-07-27T17:38:31.533Z,28.05
2022-07-27T17:40:58.472Z,28.86
2022-07-27T17:43:25.195Z,27.82
2022-07-27T17:45:52.005Z,28.71
2022-07-27T17:48:18.818Z,28.24
2022-07-27T17:50:45.535Z,28.28
2022-07-27T17:53:12.226Z,28.43
2022-07-27T17:55:39.901Z,29.21
2022-07-27T17:58:06.642Z,29.24
2022-07-27T18:00:33.524Z,28.66
2022-07-27T18:03:00.789Z,29.25
2022-07-27T18:05:27.735Z,28.77
2022-07-27T18:07:54.968Z,28.83
2022-07-27T18:10:21.791Z,28.51
2022-07-27T18:12:48.654Z,28.06
2022-07-27T18:15:35.473Z,28.34
2022-07-27T18:18:02.453Z,28.41
2022-07-27T18:20:29.175Z,28.58
2022-07-27T18:22:56.001Z,28.68
2022-07-27T18:25:22.884Z,29.01
2022-07-27T18:27:51.616Z,28.52
2022-07-27T18:30:18.866Z,28.80
2022-07-27T18:32:45.696Z,28.93
2022-07-27T18:35:12.890Z,29.00
2022-07-27T18:37:40.017Z,29.08
2022-07-27T18:40:09.008Z,29.53
2022-07-27T18:42:38.284Z,29.23
2022-07-27T18:45:09.882Z,29.28
2022-07-27T18:47:49.413Z,29.15
2022-07-27T18:50:16.688Z,29.33
2022-07-27T18:52:43.493Z,29.36
2022-07-27T18:55:10.596Z,29.32
2022-07-27T18:57:38.018Z,30.17
2022-07-27T19:00:05.891Z,29.93
2022-07-27T19:02:38.785Z,29.78
2022-07-27T19:05:07.671Z,30.12
2022-07-27T19:07:37.232Z,29.67
2022-07-27T19:10:07.618Z,29.89
2022-07-27T19:12:34.647Z,29.57
2022-07-27T19:15:01.659Z,30.16
2022-07-27T19:17:30.343Z,29.71
2022-07-27T19:20:01.463Z,30.13
2022-07-27T19:22:30.044Z,30.25
2022-07-27T19:24:56.854Z,30.21
2022-07-27T19:27:23.984Z,30.31
2022-07-27T19:29:52.887Z,30.36
2022-07-27T19:32:19.720Z,30.04
2022-07-27T19:34:47.638Z,30.47
2022-07-27T19:37:15.321Z,30.70
2022-07-27T19:40:02.287Z,30.19
2022-07-27T19:42:30.582Z,30.54
2022-07-27T19:44:57.401Z,30.20
2022-07-27T19:47:25.511Z,30.64
2022-07-27T19:49:52.400Z,30.50
2022-07-27T19:52:20.914Z,31.05
2022-07-27T19:54:47.612Z,30.91
2022-07-27T19:57:14.699Z,31.13
2022-07-27T19:59:55.448Z,31.34
2022-07-27T20:02:24.986Z,31.14
2022-07-27T20:04:52.432Z,30.95
2022-07-27T20:07:19.346Z,30.89
2022-07-27T20:09:46.354Z,31.07
2022-07-27T20:12:13.090Z,30.95
2022-07-27T20:14:39.852Z,31.10
2022-07-27T20:17:07.026Z,30.92
2022-07-27T20:19:33.821Z,31.08
2022-07-27T20:22:01.975Z,31.24
2022-07-27T20:24:29.367Z,30.88
2022-07-27T20:26:57.423Z,31.09
2022-07-27T20:29:24.549Z,31.23
2022-07-27T20:31:52.159Z,31.17
2022-07-27T20:34:23.506Z,31.37
2022-07-27T20:36:50.397Z,31.31
2022-07-27T20:39:17.846Z,31.45
2022-07-27T20:41:44.808Z,31.33
2022-07-27T20:44:11.495Z,31.53
2022-07-27T20:46:38.642Z,31.70
2022-07-27T20:49:06.503Z,31.89
2022-07-27T20:51:33.446Z,31.91
2022-07-27T20:54:00.849Z,31.84
2022-07-27T20:56:27.597Z,31.67
2022-07-27T20:58:54.758Z,31.72
2022-07-27T21:01:26.081Z,31.84
2022-07-27T21:03:52.800Z,31.49
2022-07-27T21:06:19.634Z,31.31
2022-07-27T21:08:46.970Z,31.58
2022-07-27T21:11:14.103Z,31.76
2022-07-27T21:13:41.372Z,31.91
2022-07-27T21:16:08.431Z,31.90
2022-07-27T21:18:35.668Z,31.93
2022-07-27T21:21:02.731Z,31.99
2022-07-27T21:23:48.261Z,32.06
2022-07-27T21:26:15.578Z,31.83
2022-07-27T21:28:45.706Z,31.90
2022-07-27T21:31:12.394Z,31.69
2022-07-27T21:33:40.263Z,31.89
2022-07-27T21:36:07.726Z,31.71
2022-07-27T21:38:34.612Z,31.76
2022-07-27T21:41:01.491Z,32.03
2022-07-27T21:43:28.159Z,32.17
2022-07-27T21:45:54.941Z,32.35
2022-07-27T21:48:21.651Z,32.37
2022-07-27T21:50:48.512Z,32.46
2022-07-27T21:53:15.195Z,32.46
2022-07-27T21:55:42.054Z,32.42
2022-07-27T21:58:12.142Z,32.38
2022-07-27T22:00:39.131Z,32.28
2022-07-27T22:03:06.381Z,32.45
2022-07-27T22:05:33.380Z,32.34
2022-07-27T22:08:00.255Z,32.18
2022-07-27T22:10:28.369Z,32.18
2022-07-27T22:12:55.369Z,32.48
2022-07-27T22:15:22.105Z,32.36
2022-07-27T22:17:51.024Z,32.17
2022-07-27T22:20:19.028Z,32.24
2022-07-27T22:22:46.249Z,32.00
2022-07-27T22:25:13.175Z,32.14
2022-07-27T22:27:39.982Z,32.18
2022-07-27T22:30:08.177Z,32.17
2022-07-27T22:32:35.627Z,32.45
2022-07-27T22:35:02.824Z,31.73
2022-07-27T22:37:30.548Z,32.54
2022-07-27T22:39:57.183Z,32.31
2022-07-27T22:42:23.842Z,32.41
2022-07-27T22:44:50.631Z,32.11
2022-07-27T22:47:17.499Z,31.91
2022-07-27T22:49:45.121Z,32.07
2022-07-27T22:52:12.273Z,32.01
2022-07-27T22:54:39.050Z,31.93
2022-07-27T22:57:06.985Z,32.17
2022-07-27T22:59:34.933Z,32.17
2022-07-27T23:02:02.290Z,31.55
2022-07-27T23:04:29.030Z,31.68
2022-07-27T23:06:56.171Z,32.35
2022-07-27T23:09:23.283Z,32.60
2022-07-27T23:11:50.566Z,32.51
2022-07-27T23:14:17.742Z,32.21
2022-07-27T23:16:44.944Z,32.19
2022-07-27T23:19:11.998Z,32.00
2022-07-27T23:21:39.632Z,31.98
2022-07-27T23:24:14.255Z,32.30
2022-07-27T23:26:41.955Z,32.19
2022-07-27T23:29:08.895Z,32.39
2022-07-27T23:31:35.726Z,32.23
2022-07-27T23:34:02.478Z,32.57
2022-07-27T23:36:29.264Z,32.82
2022-07-27T23:38:56.037Z,32.72
2022-07-27T23:41:22.663Z,32.53
2022-07-27T23:43:49.396Z,32.51
2022-07-27T23:46:16.169Z,32.19
2022-07-27T23:48:42.992Z,32.25
2022-07-27T23:51:16.141Z,32.84
2022-07-27T23:53:42.844Z,33.06
2022-07-27T23:56:09.496Z,33.42
2022-07-27T23:58:36.177Z,33.48
